createdAt,value
2016-08-28T00:00:14.771Z,956.60
2016-08-28T00:01:12.618Z,956.61
2016-08-28T00:02:21.293Z,956.64
2016-08-28T00:03:12.977Z,956.67
2016-08-28T00:04:13.384Z,956.66
2016-08-28T00:05:14.571Z,956.63
2016-08-28T00:06:13.956Z,956.63
2016-08-28T00:07:17.619Z,956.61
2016-08-28T00:08:32.967Z,956.63
2016-08-28T00:09:17.947Z,956.59
2016-08-28T00:10:16.758Z,956.59
2016-08-28T00:11:22.617Z,956.61
2016-08-28T00:12:16.929Z,956.58
2016-08-28T00:13:17.674Z,956.59
2016-08-28T00:14:13.806Z,956.54
2016-08-28T00:15:13.031Z,956.57
2016-08-28T00:16:12.260Z,956.51
2016-08-28T00:17:15.029Z,956.51
2016-08-28T00:18:13.491Z,956.49
2016-08-28T00:19:14.934Z,956.49
2016-08-28T00:20:13.892Z,956.45
2016-08-28T00:21:17.915Z,956.43
2016-08-28T00:22:25.494Z,956.43
2016-08-28T00:23:22.540Z,956.42
2016-08-28T00:24:14.558Z,956.45
2016-08-28T00:25:27.303Z,956.45
2016-08-28T00:26:17.781Z,956.43
2016-08-28T00:27:17.418Z,956.44
2016-08-28T00:28:23.610Z,956.43
2016-08-28T00:29:24.457Z,956.47
2016-08-28T00:30:20.630Z,956.45
2016-08-28T00:31:32.746Z,956.39
2016-08-28T00:32:42.190Z,956.41
2016-08-28T00:33:39.388Z,956.43
2016-08-28T00:34:40.842Z,956.43
2016-08-28T00:35:16.304Z,956.43
2016-08-28T00:36:24.484Z,956.42
2016-08-28T00:37:39.578Z,956.47
2016-08-28T00:38:40.504Z,956.51
2016-08-28T00:39:44.097Z,956.52
2016-08-28T00:40:29.319Z,956.56
2016-08-28T00:41:55.259Z,956.55
2016-08-28T00:42:43.859Z,956.55
2016-08-28T00:43:47.295Z,956.51
2016-08-28T00:44:38.457Z,956.46
2016-08-28T00:45:51.160Z,956.44
2016-08-28T00:46:42.155Z,956.42
2016-08-28T00:47:50.699Z,956.40
2016-08-28T00:49:54.721Z,956.47
2016-08-28T00:50:39.285Z,956.43
2016-08-28T00:51:38.728Z,956.47
2016-08-28T00:52:41.522Z,956.41
2016-08-28T00:53:28.561Z,956.41
2016-08-28T00:54:49.307Z,956.40
2016-08-28T00:55:33.241Z,956.41
2016-08-28T00:56:43.497Z,956.39
2016-08-28T00:57:50.388Z,956.38
2016-08-28T00:58:34.674Z,956.39
2016-08-28T00:59:37.038Z,956.42
2016-08-28T01:00:34.391Z,956.40
2016-08-28T01:01:41.644Z,956.41
2016-08-28T01:02:33.990Z,956.45
2016-08-28T01:03:38.904Z,956.42
2016-08-28T01:04:29.556Z,956.42
2016-08-28T01:05:36.066Z,956.42
2016-08-28T01:06:38.213Z,956.43
2016-08-28T01:07:28.533Z,956.42
2016-08-28T01:08:23.287Z,956.45
2016-08-28T01:09:38.739Z,956.42
2016-08-28T01:10:35.515Z,956.47
2016-08-28T01:11:38.913Z,956.47
2016-08-28T01:12:47.638Z,956.45
2016-08-28T01:13:49.590Z,956.46
2016-08-28T01:14:45.254Z,956.47
2016-08-28T01:15:38.220Z,956.47
2016-08-28T01:16:42.731Z,956.42
2016-08-28T01:17:43.341Z,956.43
2016-08-28T01:18:44.523Z,956.42
2016-08-28T01:19:55.849Z,956.43
2016-08-28T01:20:38.983Z,956.44
2016-08-28T01:21:38.967Z,956.39
2016-08-28T01:22:42.246Z,956.39
2016-08-28T01:23:47.070Z,956.35
2016-08-28T01:24:43.833Z,956.39
2016-08-28T01:25:43.840Z,956.33
2016-08-28T01:26:51.938Z,956.27
2016-08-28T01:27:38.743Z,956.28
2016-08-28T01:28:34.729Z,956.24
2016-08-28T01:29:44.117Z,956.26
2016-08-28T01:30:46.182Z,956.26
2016-08-28T01:31:44.672Z,956.24
2016-08-28T01:32:26.162Z,956.22
2016-08-28T01:33:35.835Z,956.21
2016-08-28T01:34:29.639Z,956.21
2016-08-28T01:35:40.871Z,956.21
2016-08-28T01:36:44.714Z,956.22
2016-08-28T01:37:37.941Z,956.18
2016-08-28T01:38:40.712Z,956.17
2016-08-28T01:39:38.831Z,956.17
2016-08-28T01:40:39.432Z,956.22
2016-08-28T01:41:44.164Z,956.23
2016-08-28T01:42:40.441Z,956.18
2016-08-28T01:43:33.955Z,956.26
2016-08-28T01:44:41.152Z,956.22
2016-08-28T01:45:38.834Z,956.21
2016-08-28T01:46:39.133Z,956.26
2016-08-28T01:47:30.539Z,956.24
2016-08-28T01:48:34.299Z,956.19
2016-08-28T01:49:44.788Z,956.29
2016-08-28T01:50:43.535Z,956.28
2016-08-28T01:51:40.208Z,956.23
2016-08-28T01:52:37.228Z,956.26
2016-08-28T01:53:38.403Z,956.26
2016-08-28T01:54:32.355Z,956.26
2016-08-28T01:55:33.980Z,956.22
2016-08-28T01:56:43.971Z,956.31
2016-08-28T01:57:54.463Z,956.29
2016-08-28T01:58:49.492Z,956.33
2016-08-28T01:59:33.606Z,956.35
2016-08-28T02:00:34.629Z,956.32
2016-08-28T02:01:42.725Z,956.35
2016-08-28T02:02:34.239Z,956.37
2016-08-28T02:03:38.499Z,956.34
2016-08-28T02:04:33.066Z,956.36
2016-08-28T02:05:38.829Z,956.35
2016-08-28T02:06:47.985Z,956.39
2016-08-28T02:07:39.667Z,956.36
2016-08-28T02:08:33.484Z,956.36
2016-08-28T02:09:44.135Z,956.35
2016-08-28T02:10:32.642Z,956.34
2016-08-28T02:11:36.245Z,956.29
2016-08-28T02:12:37.331Z,956.35
2016-08-28T02:13:46.682Z,956.33
2016-08-28T02:14:45.190Z,956.36
2016-08-28T02:15:42.523Z,956.37
2016-08-28T02:16:33.957Z,956.39
2016-08-28T02:17:21.336Z,956.38
2016-08-28T02:18:39.013Z,956.38
2016-08-28T02:19:30.627Z,956.38
2016-08-28T02:20:34.313Z,956.37
2016-08-28T02:21:34.855Z,956.36
2016-08-28T02:22:37.845Z,956.36
2016-08-28T02:23:33.838Z,956.34
2016-08-28T02:24:48.834Z,956.31
2016-08-28T02:25:43.873Z,956.32
2016-08-28T02:26:39.198Z,956.29
2016-08-28T02:27:44.920Z,956.31
2016-08-28T02:28:39.732Z,956.29
2016-08-28T02:29:39.324Z,956.27
2016-08-28T02:30:44.748Z,956.25
2016-08-28T02:31:39.871Z,956.32
2016-08-28T02:32:38.675Z,956.32
2016-08-28T02:33:38.272Z,956.29
2016-08-28T02:34:39.288Z,956.24
2016-08-28T02:35:38.288Z,956.23
2016-08-28T02:36:36.506Z,956.22
2016-08-28T02:37:29.427Z,956.16
2016-08-28T02:38:43.481Z,956.19
2016-08-28T02:39:32.022Z,956.18
2016-08-28T02:40:35.026Z,956.17
2016-08-28T02:41:40.780Z,956.14
2016-08-28T02:42:40.384Z,956.15
2016-08-28T02:43:37.591Z,956.16
2016-08-28T02:44:31.164Z,956.14
2016-08-28T02:45:39.289Z,956.20
2016-08-28T02:46:37.220Z,956.17
2016-08-28T02:47:43.663Z,956.19
2016-08-28T02:48:34.020Z,956.17
2016-08-28T02:49:42.388Z,956.20
2016-08-28T02:50:33.403Z,956.26
2016-08-28T02:51:41.116Z,956.23
2016-08-28T02:52:44.308Z,956.24
2016-08-28T02:53:43.893Z,956.23
2016-08-28T02:54:42.779Z,956.24
2016-08-28T02:55:34.216Z,956.22
2016-08-28T02:56:43.620Z,956.25
2016-08-28T02:57:39.305Z,956.22
2016-08-28T02:58:38.156Z,956.26
2016-08-28T02:59:37.829Z,956.31
2016-08-28T03:00:44.703Z,956.34
2016-08-28T03:01:36.994Z,956.31
2016-08-28T03:02:38.795Z,956.30
2016-08-28T03:03:33.226Z,956.32
2016-08-28T03:04:38.034Z,956.34
2016-08-28T03:05:40.145Z,956.35
2016-08-28T03:06:39.157Z,956.36
2016-08-28T03:07:39.516Z,956.35
2016-08-28T03:08:41.015Z,956.41
2016-08-28T03:09:52.947Z,956.41
2016-08-28T03:10:32.889Z,956.45
2016-08-28T03:11:44.769Z,956.44
2016-08-28T03:12:36.813Z,956.46
2016-08-28T03:13:43.187Z,956.48
2016-08-28T03:14:40.523Z,956.46
2016-08-28T03:15:45.494Z,956.52
2016-08-28T03:16:38.782Z,956.46
2016-08-28T03:17:39.226Z,956.43
2016-08-28T03:18:42.112Z,956.45
2016-08-28T03:19:35.575Z,956.48
2016-08-28T03:20:38.950Z,956.48
2016-08-28T03:21:39.549Z,956.49
2016-08-28T03:22:41.787Z,956.46
2016-08-28T03:23:38.754Z,956.50
2016-08-28T03:24:40.826Z,956.49
2016-08-28T03:25:39.882Z,956.45
2016-08-28T03:26:40.214Z,956.46
2016-08-28T03:27:48.605Z,956.47
2016-08-28T03:28:34.985Z,956.51
2016-08-28T03:29:39.845Z,956.47
2016-08-28T03:30:20.240Z,956.50
2016-08-28T03:31:40.567Z,956.49
2016-08-28T03:32:22.326Z,956.50
2016-08-28T03:33:42.152Z,956.48
2016-08-28T03:34:26.312Z,956.46
2016-08-28T03:35:38.351Z,956.50
2016-08-28T03:36:33.994Z,956.44
2016-08-28T03:37:39.595Z,956.40
2016-08-28T03:38:44.647Z,956.39
2016-08-28T03:39:38.385Z,956.38
2016-08-28T03:40:38.525Z,956.38
2016-08-28T03:41:40.078Z,956.34
2016-08-28T03:42:41.846Z,956.33
2016-08-28T03:43:38.968Z,956.34
2016-08-28T03:44:43.668Z,956.33
2016-08-28T03:45:42.892Z,956.32
2016-08-28T03:46:47.351Z,956.31
2016-08-28T03:47:39.514Z,956.33
2016-08-28T03:48:35.566Z,956.30
2016-08-28T03:49:31.523Z,956.28
2016-08-28T03:50:40.958Z,956.30
2016-08-28T03:51:34.824Z,956.29
2016-08-28T03:52:38.556Z,956.31
2016-08-28T03:53:33.833Z,956.34
2016-08-28T03:54:45.334Z,956.31
2016-08-28T03:55:40.699Z,956.30
2016-08-28T03:56:38.986Z,956.32
2016-08-28T03:57:39.905Z,956.28
2016-08-28T03:58:37.763Z,956.26
2016-08-28T03:59:48.600Z,956.29
2016-08-28T04:00:45.107Z,956.24
2016-08-28T04:01:39.742Z,956.27
2016-08-28T04:02:38.804Z,956.25
2016-08-28T04:03:43.935Z,956.23
2016-08-28T04:04:38.617Z,956.23
2016-08-28T04:05:36.250Z,956.20
2016-08-28T04:06:32.959Z,956.18
2016-08-28T04:07:44.674Z,956.19
2016-08-28T04:08:44.200Z,956.16
2016-08-28T04:09:42.913Z,956.18
2016-08-28T04:10:36.025Z,956.24
2016-08-28T04:11:42.798Z,956.21
2016-08-28T04:12:38.530Z,956.30
2016-08-28T04:13:39.866Z,956.31
2016-08-28T04:14:31.268Z,956.38
2016-08-28T04:15:44.358Z,956.38
2016-08-28T04:16:38.738Z,956.42
2016-08-28T04:17:34.299Z,956.42
2016-08-28T04:18:38.930Z,956.42
2016-08-28T04:19:31.732Z,956.39
2016-08-28T04:20:40.423Z,956.38
2016-08-28T04:21:36.750Z,956.38
2016-08-28T04:22:38.731Z,956.39
2016-08-28T04:23:46.517Z,956.40
2016-08-28T04:24:35.176Z,956.40
2016-08-28T04:25:44.583Z,956.37
2016-08-28T04:26:39.187Z,956.41
2016-08-28T04:27:48.818Z,956.43
2016-08-28T04:28:44.736Z,956.41
2016-08-28T04:29:44.516Z,956.39
2016-08-28T04:30:38.600Z,956.41
2016-08-28T04:31:41.549Z,956.42
2016-08-28T04:32:20.256Z,956.41
2016-08-28T04:33:43.310Z,956.42
2016-08-28T04:34:45.492Z,956.45
2016-08-28T04:35:39.018Z,956.43
2016-08-28T04:36:38.740Z,956.46
2016-08-28T04:37:38.770Z,956.43
2016-08-28T04:38:39.748Z,956.47
2016-08-28T04:39:43.203Z,956.44
2016-08-28T04:40:38.067Z,956.48
2016-08-28T04:41:38.990Z,956.45
2016-08-28T04:42:43.326Z,956.49
2016-08-28T04:43:37.491Z,956.52
2016-08-28T04:44:45.958Z,956.48
2016-08-28T04:45:39.815Z,956.51
2016-08-28T04:46:36.676Z,956.50
2016-08-28T04:47:44.047Z,956.49
2016-08-28T04:48:40.515Z,956.48
2016-08-28T04:49:39.082Z,956.49
2016-08-28T04:50:39.493Z,956.50
2016-08-28T04:51:26.775Z,956.45
2016-08-28T04:52:40.335Z,956.46
2016-08-28T04:53:37.363Z,956.49
2016-08-28T04:54:36.983Z,956.51
2016-08-28T04:55:34.690Z,956.49
2016-08-28T04:56:38.651Z,956.51
2016-08-28T04:57:34.092Z,956.51
2016-08-28T04:58:36.964Z,956.52
2016-08-28T04:59:44.342Z,956.59
2016-08-28T05:00:37.687Z,956.58
2016-08-28T05:01:41.004Z,956.55
2016-08-28T05:02:39.184Z,956.57
2016-08-28T05:03:40.240Z,956.62
2016-08-28T05:04:24.495Z,956.59
2016-08-28T05:05:40.179Z,956.63
2016-08-28T05:06:42.014Z,956.66
2016-08-28T05:07:39.327Z,956.67
2016-08-28T05:08:38.468Z,956.67
2016-08-28T05:09:39.853Z,956.71
2016-08-28T05:10:37.258Z,956.66
2016-08-28T05:11:37.940Z,956.65
2016-08-28T05:12:39.591Z,956.69
2016-08-28T05:13:31.484Z,956.70
2016-08-28T05:14:40.633Z,956.72
2016-08-28T05:15:32.229Z,956.69
2016-08-28T05:16:44.953Z,956.69
2016-08-28T05:17:35.225Z,956.70
2016-08-28T05:18:39.166Z,956.73
2016-08-28T05:19:40.137Z,956.73
2016-08-28T05:20:44.404Z,956.72
2016-08-28T05:21:36.222Z,956.70
2016-08-28T05:22:49.643Z,956.70
2016-08-28T05:23:43.919Z,956.71
2016-08-28T05:24:40.681Z,956.73
2016-08-28T05:25:39.389Z,956.74
2016-08-28T05:26:46.429Z,956.75
2016-08-28T05:27:41.120Z,956.73
2016-08-28T05:28:39.938Z,956.72
2016-08-28T05:29:43.503Z,956.77
2016-08-28T05:30:32.776Z,956.79
2016-08-28T05:31:31.572Z,956.80
2016-08-28T05:32:40.391Z,956.81
2016-08-28T05:33:38.631Z,956.78
2016-08-28T05:34:34.248Z,956.81
2016-08-28T05:35:40.981Z,956.82
2016-08-28T05:36:38.805Z,956.80
2016-08-28T05:37:39.671Z,956.83
2016-08-28T05:38:46.949Z,956.77
2016-08-28T05:39:40.139Z,956.74
2016-08-28T05:40:43.837Z,956.74
2016-08-28T05:41:39.262Z,956.77
2016-08-28T05:42:38.844Z,956.80
2016-08-28T05:43:32.205Z,956.77
2016-08-28T05:44:39.965Z,956.80
2016-08-28T05:45:39.924Z,956.80
2016-08-28T05:46:46.432Z,956.77
2016-08-28T05:47:42.855Z,956.77
2016-08-28T05:48:36.845Z,956.76
2016-08-28T05:49:44.496Z,956.78
2016-08-28T05:50:40.233Z,956.79
2016-08-28T05:51:45.240Z,956.78
2016-08-28T05:52:40.612Z,956.80
2016-08-28T05:53:43.392Z,956.78
2016-08-28T05:54:44.185Z,956.78
2016-08-28T05:55:44.964Z,956.82
2016-08-28T05:56:40.125Z,956.82
2016-08-28T05:57:49.123Z,956.79
2016-08-28T05:58:41.412Z,956.80
2016-08-28T05:59:44.213Z,956.84
2016-08-28T06:00:41.681Z,956.83
2016-08-28T06:01:33.737Z,956.82
2016-08-28T06:02:50.458Z,956.78
2016-08-28T06:03:40.060Z,956.79
2016-08-28T06:04:47.494Z,956.84
2016-08-28T06:05:42.997Z,956.81
2016-08-28T06:06:36.669Z,956.84
2016-08-28T06:07:39.979Z,956.87
2016-08-28T06:08:39.231Z,956.87
2016-08-28T06:09:34.805Z,956.88
2016-08-28T06:10:27.770Z,956.87
2016-08-28T06:11:40.164Z,956.86
2016-08-28T06:12:13.468Z,956.88
2016-08-28T06:13:45.422Z,956.90
2016-08-28T06:14:46.218Z,956.89
2016-08-28T06:15:44.536Z,956.92
2016-08-28T06:16:38.201Z,956.88
2016-08-28T06:17:42.197Z,956.96
2016-08-28T06:18:39.594Z,956.96
2016-08-28T06:19:44.809Z,956.91
2016-08-28T06:20:38.224Z,956.95
2016-08-28T06:21:35.108Z,956.94
2016-08-28T06:22:44.629Z,956.95
2016-08-28T06:23:38.754Z,956.98
2016-08-28T06:24:44.204Z,956.99
2016-08-28T06:25:37.841Z,956.99
2016-08-28T06:26:38.750Z,957.03
2016-08-28T06:27:50.389Z,957.04
2016-08-28T06:28:31.851Z,957.06
2016-08-28T06:29:40.337Z,957.08
2016-08-28T06:30:47.467Z,957.08
2016-08-28T06:31:39.514Z,957.08
2016-08-28T06:32:44.722Z,957.11
2016-08-28T06:33:33.454Z,957.13
2016-08-28T06:34:43.447Z,957.12
2016-08-28T06:35:38.694Z,957.13
2016-08-28T06:36:27.827Z,957.17
2016-08-28T06:37:47.831Z,957.15
2016-08-28T06:38:29.518Z,957.18
2016-08-28T06:39:46.076Z,957.18
2016-08-28T06:40:39.024Z,957.19
2016-08-28T06:41:54.902Z,957.22
2016-08-28T06:42:49.285Z,957.22
2016-08-28T06:43:34.366Z,957.17
2016-08-28T06:44:46.121Z,957.18
2016-08-28T06:45:39.280Z,957.21
2016-08-28T06:46:38.838Z,957.22
2016-08-28T06:47:39.713Z,957.22
2016-08-28T06:48:23.750Z,957.18
2016-08-28T06:49:36.450Z,957.21
2016-08-28T06:50:43.673Z,957.21
2016-08-28T06:51:44.821Z,957.24
2016-08-28T06:52:45.390Z,957.24
2016-08-28T06:53:42.817Z,957.29
2016-08-28T06:54:39.538Z,957.24
2016-08-28T06:55:39.590Z,957.24
2016-08-28T06:56:39.030Z,957.23
2016-08-28T06:57:44.573Z,957.25
2016-08-28T06:58:38.931Z,957.18
2016-08-28T06:59:32.838Z,957.21
2016-08-28T07:00:42.834Z,957.22
2016-08-28T07:01:39.951Z,957.24
2016-08-28T07:02:44.084Z,957.25
2016-08-28T07:03:12.529Z,957.29
2016-08-28T07:04:49.953Z,957.31
2016-08-28T07:05:38.647Z,957.31
2016-08-28T07:06:33.466Z,957.31
2016-08-28T07:07:50.342Z,957.30
2016-08-28T07:08:38.906Z,957.29
2016-08-28T07:09:40.785Z,957.30
2016-08-28T07:10:16.273Z,957.32
2016-08-28T07:11:44.817Z,957.28
2016-08-28T07:12:38.771Z,957.30
2016-08-28T07:13:38.535Z,957.29
2016-08-28T07:14:43.042Z,957.34
2016-08-28T07:15:39.169Z,957.32
2016-08-28T07:16:41.053Z,957.33
2016-08-28T07:17:33.226Z,957.32
2016-08-28T07:18:52.847Z,957.35
2016-08-28T07:19:38.871Z,957.34
2016-08-28T07:20:40.141Z,957.32
2016-08-28T07:21:44.933Z,957.33
2016-08-28T07:22:50.724Z,957.32
2016-08-28T07:23:38.651Z,957.33
2016-08-28T07:24:49.775Z,957.36
2016-08-28T07:25:42.179Z,957.31
2016-08-28T07:26:45.720Z,957.36
2016-08-28T07:27:51.583Z,957.36
2016-08-28T07:28:43.322Z,957.35
2016-08-28T07:29:47.308Z,957.35
2016-08-28T07:30:32.969Z,957.39
2016-08-28T07:31:36.198Z,957.41
2016-08-28T07:32:39.189Z,957.39
2016-08-28T07:33:29.085Z,957.38
2016-08-28T07:34:41.876Z,957.44
2016-08-28T07:35:48.797Z,957.42
2016-08-28T07:36:32.711Z,957.40
2016-08-28T07:37:27.918Z,957.41
2016-08-28T07:38:40.397Z,957.44
2016-08-28T07:39:23.252Z,957.42
2016-08-28T07:40:36.126Z,957.44
2016-08-28T07:41:43.549Z,957.43
2016-08-28T07:42:34.998Z,957.42
2016-08-28T07:43:44.798Z,957.46
2016-08-28T07:44:32.453Z,957.45
2016-08-28T07:45:31.110Z,957.48
2016-08-28T07:46:34.866Z,957.49
2016-08-28T07:47:36.175Z,957.52
2016-08-28T07:48:39.805Z,957.53
2016-08-28T07:49:43.275Z,957.49
2016-08-28T07:50:39.235Z,957.47
2016-08-28T07:51:37.352Z,957.43
2016-08-28T07:52:42.549Z,957.45
2016-08-28T07:53:38.981Z,957.47
2016-08-28T07:54:36.009Z,957.48
2016-08-28T07:55:32.880Z,957.53
2016-08-28T07:56:34.859Z,957.57
2016-08-28T07:57:34.250Z,957.55
2016-08-28T07:58:36.574Z,957.56
2016-08-28T07:59:36.240Z,957.52
2016-08-28T08:00:41.564Z,957.52
2016-08-28T08:01:37.794Z,957.60
2016-08-28T08:02:50.140Z,957.62
2016-08-28T08:03:34.979Z,957.62
2016-08-28T08:04:39.717Z,957.59
2016-08-28T08:05:34.424Z,957.59
2016-08-28T08:06:35.114Z,957.62
2016-08-28T08:07:44.127Z,957.61
2016-08-28T08:08:28.833Z,957.58
2016-08-28T08:09:37.110Z,957.64
2016-08-28T08:10:33.685Z,957.65
2016-08-28T08:11:41.985Z,957.65
2016-08-28T08:12:33.612Z,957.65
2016-08-28T08:13:35.433Z,957.63
2016-08-28T08:14:23.453Z,957.64
2016-08-28T08:15:33.708Z,957.65
2016-08-28T08:16:34.614Z,957.66
2016-08-28T08:17:39.749Z,957.58
2016-08-28T08:18:32.114Z,957.59
2016-08-28T08:19:35.710Z,957.57
2016-08-28T08:20:14.252Z,957.53
2016-08-28T08:21:39.252Z,957.51
2016-08-28T08:22:28.525Z,957.57
2016-08-28T08:23:28.985Z,957.57
2016-08-28T08:24:32.132Z,957.53
2016-08-28T08:25:28.241Z,957.60
2016-08-28T08:26:37.373Z,957.61
2016-08-28T08:27:48.841Z,957.59
2016-08-28T08:28:26.854Z,957.63
2016-08-28T08:29:45.269Z,957.62
2016-08-28T08:30:33.605Z,957.59
2016-08-28T08:31:33.782Z,957.65
2016-08-28T08:32:33.113Z,957.63
2016-08-28T08:33:36.707Z,957.64
2016-08-28T08:34:29.755Z,957.63
2016-08-28T08:35:39.731Z,957.61
2016-08-28T08:36:32.327Z,957.60
2016-08-28T08:37:33.321Z,957.63
2016-08-28T08:38:39.735Z,957.64
2016-08-28T08:39:13.619Z,957.65
2016-08-28T08:40:30.897Z,957.63
2016-08-28T08:41:38.546Z,957.66
2016-08-28T08:42:44.269Z,957.62
2016-08-28T08:43:32.406Z,957.63
2016-08-28T08:44:31.558Z,957.62
2016-08-28T08:45:36.994Z,957.62
2016-08-28T08:46:42.427Z,957.61
2016-08-28T08:47:44.156Z,957.61
2016-08-28T08:48:39.300Z,957.63
2016-08-28T08:49:48.101Z,957.64
2016-08-28T08:50:37.037Z,957.57
2016-08-28T08:51:34.273Z,957.59
2016-08-28T08:52:40.543Z,957.66
2016-08-28T08:53:22.999Z,957.60
2016-08-28T08:54:33.009Z,957.60
2016-08-28T08:55:36.734Z,957.63
2016-08-28T08:56:31.681Z,957.65
2016-08-28T08:57:31.768Z,957.66
2016-08-28T08:58:23.034Z,957.63
2016-08-28T08:59:17.286Z,957.62
2016-08-28T09:00:37.207Z,957.58
2016-08-28T09:01:33.025Z,957.63
2016-08-28T09:02:33.472Z,957.56
2016-08-28T09:03:54.048Z,957.61
2016-08-28T09:04:37.824Z,957.62
2016-08-28T09:05:42.336Z,957.61
2016-08-28T09:06:37.067Z,957.62
2016-08-28T09:07:27.436Z,957.66
2016-08-28T09:08:39.536Z,957.65
2016-08-28T09:09:44.997Z,957.68
2016-08-28T09:10:38.553Z,957.66
2016-08-28T09:11:49.084Z,957.66
2016-08-28T09:12:44.866Z,957.65
2016-08-28T09:13:41.182Z,957.69
2016-08-28T09:14:51.142Z,957.68
2016-08-28T09:15:39.693Z,957.71
2016-08-28T09:16:43.922Z,957.69
2016-08-28T09:17:54.550Z,957.72
2016-08-28T09:18:34.779Z,957.72
2016-08-28T09:19:21.752Z,957.79
2016-08-28T09:20:23.001Z,957.78
2016-08-28T09:21:11.829Z,957.77
2016-08-28T09:22:16.623Z,957.77
2016-08-28T09:23:13.818Z,957.78
2016-08-28T09:24:12.136Z,957.77
2016-08-28T09:25:14.546Z,957.79
2016-08-28T09:26:20.708Z,957.80
2016-08-28T09:27:17.784Z,957.77
2016-08-28T09:28:19.849Z,957.81
2016-08-28T09:29:13.765Z,957.86
2016-08-28T09:30:13.939Z,957.83
2016-08-28T09:31:14.794Z,957.85
2016-08-28T09:32:14.375Z,957.86
2016-08-28T09:33:21.127Z,957.85
2016-08-28T09:34:32.913Z,957.83
2016-08-28T09:35:34.854Z,957.81
2016-08-28T09:36:27.392Z,957.89
2016-08-28T09:37:23.241Z,957.86
2016-08-28T09:38:16.689Z,957.88
2016-08-28T09:39:23.929Z,957.87
2016-08-28T09:40:29.201Z,957.89
2016-08-28T09:41:23.903Z,957.89
2016-08-28T09:42:24.090Z,957.89
2016-08-28T09:43:22.410Z,957.86
2016-08-28T09:44:24.895Z,957.81
2016-08-28T09:45:23.963Z,957.86
2016-08-28T09:46:16.857Z,957.85
2016-08-28T09:47:36.477Z,957.87
2016-08-28T09:48:33.152Z,957.87
2016-08-28T09:49:34.076Z,957.87
2016-08-28T09:50:37.256Z,957.82
2016-08-28T09:51:19.478Z,957.82
2016-08-28T09:52:27.181Z,957.84
2016-08-28T09:53:33.807Z,957.83
2016-08-28T09:54:24.685Z,957.79
2016-08-28T09:55:19.169Z,957.85
2016-08-28T09:56:16.208Z,957.84
2016-08-28T09:57:15.555Z,957.76
2016-08-28T09:58:26.143Z,957.78
2016-08-28T09:59:19.093Z,957.76
2016-08-28T10:00:23.676Z,957.76
2016-08-28T10:01:17.155Z,957.74
2016-08-28T10:02:40.024Z,957.75
2016-08-28T10:03:21.921Z,957.68
2016-08-28T10:04:16.227Z,957.73
2016-08-28T10:05:34.441Z,957.71
2016-08-28T10:06:14.529Z,957.72
2016-08-28T10:07:15.187Z,957.72
2016-08-28T10:08:25.195Z,957.70
2016-08-28T10:09:23.358Z,957.66
2016-08-28T10:10:16.021Z,957.68
2016-08-28T10:11:22.241Z,957.68
2016-08-28T10:12:21.465Z,957.67
2016-08-28T10:13:16.364Z,957.62
2016-08-28T10:14:13.575Z,957.64
2016-08-28T10:15:26.354Z,957.67
2016-08-28T10:16:22.044Z,957.66
2016-08-28T10:17:23.636Z,957.67
2016-08-28T10:18:33.023Z,957.64
2016-08-28T10:19:20.178Z,957.64
2016-08-28T10:20:22.014Z,957.62
2016-08-28T10:21:12.117Z,957.69
2016-08-28T10:22:34.102Z,957.69
2016-08-28T10:23:21.896Z,957.66
2016-08-28T10:24:26.081Z,957.65
2016-08-28T10:25:25.170Z,957.64
2016-08-28T10:26:16.483Z,957.59
2016-08-28T10:27:34.817Z,957.57
2016-08-28T10:28:32.765Z,957.57
2016-08-28T10:29:21.689Z,957.56
2016-08-28T10:30:15.707Z,957.52
2016-08-28T10:31:16.048Z,957.51
2016-08-28T10:32:21.669Z,957.49
2016-08-28T10:33:13.898Z,957.50
2016-08-28T10:34:32.727Z,957.50
2016-08-28T10:35:22.509Z,957.55
2016-08-28T10:36:21.237Z,957.48
2016-08-28T10:37:31.224Z,957.53
2016-08-28T10:38:14.266Z,957.47
2016-08-28T10:39:14.109Z,957.45
2016-08-28T10:40:29.297Z,957.47
2016-08-28T10:41:29.115Z,957.42
2016-08-28T10:42:24.467Z,957.47
2016-08-28T10:43:25.206Z,957.45
2016-08-28T10:44:22.623Z,957.40
2016-08-28T10:45:23.178Z,957.40
2016-08-28T10:46:17.525Z,957.40
2016-08-28T10:47:34.222Z,957.39
2016-08-28T10:48:33.399Z,957.40
2016-08-28T10:49:16.285Z,957.40
2016-08-28T10:50:34.212Z,957.35
2016-08-28T10:51:32.892Z,957.32
2016-08-28T10:52:16.884Z,957.30
2016-08-28T10:53:18.822Z,957.29
2016-08-28T10:54:13.633Z,957.29
2016-08-28T10:55:15.942Z,957.40
2016-08-28T10:56:18.333Z,957.42
2016-08-28T10:57:29.877Z,957.46
2016-08-28T10:58:18.194Z,957.51
2016-08-28T10:59:38.842Z,957.50
2016-08-28T11:00:14.992Z,957.52
2016-08-28T11:01:15.351Z,957.57
2016-08-28T11:02:19.792Z,957.58
2016-08-28T11:03:26.270Z,957.60
2016-08-28T11:04:20.655Z,957.64
2016-08-28T11:05:14.925Z,957.68
2016-08-28T11:06:18.533Z,957.60
2016-08-28T11:07:15.480Z,957.56
2016-08-28T11:08:16.420Z,957.53
2016-08-28T11:09:15.986Z,957.53
2016-08-28T11:10:25.105Z,957.54
2016-08-28T11:11:14.544Z,957.49
2016-08-28T11:12:19.470Z,957.49
2016-08-28T11:13:13.876Z,957.53
2016-08-28T11:14:21.125Z,957.51
2016-08-28T11:15:15.793Z,957.51
2016-08-28T11:16:23.156Z,957.50
2016-08-28T11:17:15.096Z,957.48
2016-08-28T11:18:17.973Z,957.51
2016-08-28T11:19:16.898Z,957.47
2016-08-28T11:20:22.871Z,957.46
2016-08-28T11:21:17.273Z,957.43
2016-08-28T11:22:17.733Z,957.43
2016-08-28T11:23:13.361Z,957.41
2016-08-28T11:24:30.452Z,957.42
2016-08-28T11:25:16.086Z,957.41
2016-08-28T11:26:22.261Z,957.41
2016-08-28T11:27:15.879Z,957.41
2016-08-28T11:28:21.712Z,957.41
2016-08-28T11:29:20.409Z,957.38
2016-08-28T11:30:13.619Z,957.34
2016-08-28T11:31:19.138Z,957.37
2016-08-28T11:32:13.311Z,957.35
2016-08-28T11:33:18.829Z,957.32
2016-08-28T11:34:13.009Z,957.30
2016-08-28T11:35:20.577Z,957.29
2016-08-28T11:36:19.792Z,957.27
2016-08-28T11:37:17.153Z,957.29
2016-08-28T11:38:18.197Z,957.30
2016-08-28T11:39:20.438Z,957.26
2016-08-28T11:40:15.154Z,957.25
2016-08-28T11:41:19.518Z,957.23
2016-08-28T11:42:20.929Z,957.23
2016-08-28T11:43:40.757Z,957.18
2016-08-28T11:44:14.783Z,957.19
2016-08-28T11:45:24.343Z,957.19
2016-08-28T11:46:22.259Z,957.18
2016-08-28T11:47:21.472Z,957.23
2016-08-28T11:48:23.233Z,957.14
2016-08-28T11:49:31.732Z,957.16
2016-08-28T11:50:21.731Z,957.10
2016-08-28T11:51:34.146Z,957.13
2016-08-28T11:52:35.653Z,957.11
2016-08-28T11:53:18.691Z,957.14
2016-08-28T11:54:21.552Z,957.13
2016-08-28T11:55:16.065Z,957.09
2016-08-28T11:56:32.922Z,957.08
2016-08-28T11:57:22.946Z,957.07
2016-08-28T11:58:24.203Z,957.04
2016-08-28T11:59:36.740Z,957.01
2016-08-28T12:00:20.481Z,957.03
2016-08-28T12:01:33.167Z,956.98
2016-08-28T12:02:24.634Z,957.00
2016-08-28T12:03:16.542Z,956.99
2016-08-28T12:04:17.575Z,956.96
2016-08-28T12:05:13.386Z,956.92
2016-08-28T12:06:16.964Z,956.95
2016-08-28T12:07:19.805Z,956.92
2016-08-28T12:08:19.932Z,956.87
2016-08-28T12:09:16.267Z,956.88
2016-08-28T12:10:31.118Z,956.90
2016-08-28T12:11:31.999Z,956.88
2016-08-28T12:12:17.141Z,956.88
2016-08-28T12:13:22.701Z,956.84
2016-08-28T12:14:17.658Z,956.84
2016-08-28T12:15:20.157Z,956.80
2016-08-28T12:16:20.591Z,956.78
2016-08-28T12:17:22.245Z,956.79
2016-08-28T12:18:24.581Z,956.74
2016-08-28T12:19:18.921Z,956.74
2016-08-28T12:20:29.265Z,956.71
2016-08-28T12:21:34.981Z,956.67
2016-08-28T12:22:12.977Z,956.69
2016-08-28T12:23:27.321Z,956.69
2016-08-28T12:24:27.807Z,956.64
2016-08-28T12:25:21.867Z,956.62
2016-08-28T12:26:15.296Z,956.59
2016-08-28T12:27:23.545Z,956.58
2016-08-28T12:28:32.064Z,956.55
2016-08-28T12:29:23.154Z,956.58